Time;durP1;ratioP1;P1;durP2;ratioP2;P2;SDS_P1;SDS_P2;PMS_P1;PMS_P2;Temp;Humidity;BMP_temperature;BMP_pressure;BME280_temperature;BME280_humidity;BME280_pressure;Samples;Min_cycle;Max_cycle;Signal;HPM_P1;HPM_P2
2022/11/14 00:00:31;;;;;;;52.50;25.67;;;6.70;99.90;;;;;;5016682;28;20048;-81
2022/11/14 00:03:01;;;;;;;54.58;25.08;;;6.70;99.90;;;;;;5014529;28;20518;-83
2022/11/14 00:05:27;;;;;;;51.75;25.63;;;6.80;99.90;;;;;;5036576;28;20063;-84
2022/11/14 00:07:53;;;;;;;52.90;26.15;;;6.70;99.90;;;;;;5005209;28;20049;-83
2022/11/14 00:10:19;;;;;;;56.83;26.90;;;6.80;99.90;;;;;;5033364;28;20083;-82
2022/11/14 00:12:45;;;;;;;52.53;26.58;;;6.80;99.90;;;;;;5031470;28;20049;-83
2022/11/14 00:15:12;;;;;;;55.22;26.48;;;6.80;99.90;;;;;;5048853;28;20037;-82
2022/11/14 00:17:38;;;;;;;49.55;25.48;;;6.80;99.90;;;;;;5031902;28;20099;-87
2022/11/14 00:20:05;;;;;;;52.22;24.92;;;6.80;99.90;;;;;;5049836;28;20041;-83
2022/11/14 00:22:31;;;;;;;46.45;24.15;;;6.80;99.90;;;;;;5017601;28;20048;-82
2022/11/14 00:24:57;;;;;;;50.90;24.10;;;6.90;99.90;;;;;;5048965;28;20040;-83
2022/11/14 00:27:23;;;;;;;49.40;25.05;;;6.90;99.90;;;;;;4999653;28;20044;-82
2022/11/14 00:29:49;;;;;;;55.20;25.00;;;6.90;99.90;;;;;;5048677;28;20505;-82
2022/11/14 00:32:15;;;;;;;52.63;26.05;;;6.80;99.90;;;;;;5000678;28;20052;-83
2022/11/14 00:34:40;;;;;;;49.50;25.77;;;6.90;99.90;;;;;;5039500;28;20044;-85
2022/11/14 00:37:06;;;;;;;54.17;25.40;;;6.90;99.90;;;;;;5031152;28;20049;-83
2022/11/14 00:39:31;;;;;;;51.65;24.92;;;6.90;99.90;;;;;;5012492;28;20037;-83
2022/11/14 00:41:57;;;;;;;55.42;25.35;;;6.90;99.90;;;;;;5045890;28;20053;-84
2022/11/14 00:44:23;;;;;;;52.20;26.55;;;6.90;99.90;;;;;;5050216;28;20051;-82
2022/11/14 00:46:48;;;;;;;57.22;27.27;;;6.90;99.90;;;;;;5022251;28;20081;-82
2022/11/14 00:49:14;;;;;;;56.28;28.33;;;6.90;99.90;;;;;;5014749;28;20045;-82
2022/11/14 00:51:40;;;;;;;56.13;27.05;;;6.90;99.90;;;;;;5015128;28;20164;-82
2022/11/14 00:54:05;;;;;;;54.28;27.85;;;6.90;99.90;;;;;;5030954;28;20343;-83
2022/11/14 00:56:31;;;;;;;57.65;28.67;;;6.90;99.90;;;;;;5014690;28;20170;-82
2022/11/14 00:58:57;;;;;;;56.42;28.67;;;6.90;99.90;;;;;;5026770;28;20050;-83
2022/11/14 01:01:22;;;;;;;56.30;29.67;;;6.90;99.90;;;;;;5005385;28;20168;-82
2022/11/14 01:03:49;;;;;;;56.25;27.90;;;6.90;99.90;;;;;;5020465;28;20576;-82
2022/11/14 01:06:15;;;;;;;55.90;29.73;;;6.90;99.90;;;;;;5032978;28;20494;-82
2022/11/14 01:08:42;;;;;;;59.20;29.20;;;6.90;99.90;;;;;;5047659;28;20056;-83
2022/11/14 01:11:10;;;;;;;56.33;28.65;;;6.90;99.90;;;;;;5048944;28;20551;-83
2022/11/14 01:13:37;;;;;;;59.10;29.48;;;6.90;99.90;;;;;;5049048;28;20040;-83
2022/11/14 01:16:03;;;;;;;60.65;29.85;;;6.90;99.90;;;;;;5032030;28;20063;-84
2022/11/14 01:18:28;;;;;;;59.78;29.98;;;6.90;99.90;;;;;;5031786;28;20060;-83
2022/11/14 01:20:54;;;;;;;67.03;31.05;;;6.90;99.90;;;;;;5022465;28;20041;-82
2022/11/14 01:23:20;;;;;;;60.35;29.52;;;6.70;99.90;;;;;;5015166;28;20045;-82
2022/11/14 01:25:45;;;;;;;61.22;30.90;;;6.80;99.90;;;;;;5016009;28;20135;-85
2022/11/14 01:28:17;;;;;;;65.68;32.25;;;6.70;99.90;;;;;;5031424;28;20057;-82
2022/11/14 01:30:43;;;;;;;65.15;32.08;;;6.70;99.90;;;;;;5044843;28;20048;-82
2022/11/14 01:33:09;;;;;;;69.10;33.25;;;6.60;99.90;;;;;;5026805;28;20405;-81
2022/11/14 01:35:36;;;;;;;69.32;33.88;;;6.60;99.90;;;;;;5044902;28;20045;-82
2022/11/14 01:38:04;;;;;;;67.40;32.97;;;6.60;99.90;;;;;;5047281;28;20049;-82
2022/11/14 01:40:30;;;;;;;66.60;33.47;;;6.60;99.90;;;;;;5030025;28;20048;-82
2022/11/14 01:43:15;;;;;;;67.80;34.17;;;6.50;99.90;;;;;;5028692;28;20041;-82
2022/11/14 01:45:53;;;;;;;71.55;34.15;;;6.50;99.90;;;;;;5042940;28;20045;-82
2022/11/14 01:48:41;;;;;;;73.60;34.95;;;6.40;99.90;;;;;;5058154;28;20516;-82
2022/11/14 01:51:16;;;;;;;72.45;34.22;;;6.40;99.90;;;;;;5049003;28;20246;-83
2022/11/14 01:53:43;;;;;;;72.35;35.55;;;6.40;99.90;;;;;;5045698;28;20690;-82
2022/11/14 01:56:11;;;;;;;74.57;34.95;;;6.30;99.90;;;;;;5030247;28;20379;-82
2022/11/14 01:58:42;;;;;;;77.90;35.25;;;6.30;99.90;;;;;;5029598;28;20275;-82
2022/11/14 02:01:08;;;;;;;79.97;37.10;;;6.30;99.90;;;;;;5038420;28;20079;-82
2022/11/14 02:03:39;;;;;;;87.80;37.22;;;6.30;99.90;;;;;;5015751;28;20049;-82
2022/11/14 02:06:08;;;;;;;83.00;38.72;;;6.20;99.90;;;;;;5028895;28;20045;-82
2022/11/14 02:08:35;;;;;;;85.68;38.05;;;6.20;99.90;;;;;;5031071;28;20045;-82
2022/11/14 02:11:01;;;;;;;82.28;37.30;;;6.10;99.90;;;;;;5027692;28;20053;-81
2022/11/14 02:13:26;;;;;;;88.00;39.17;;;6.10;99.90;;;;;;5013760;28;20075;-82
2022/11/14 02:15:53;;;;;;;85.07;38.47;;;6.10;99.90;;;;;;5031152;28;20114;-85
2022/11/14 02:18:18;;;;;;;87.05;39.10;;;6.10;99.90;;;;;;4998409;28;20055;-85
2022/11/14 02:20:44;;;;;;;84.88;38.88;;;6.20;99.90;;;;;;5044028;28;20041;-83
2022/11/14 02:23:11;;;;;;;85.88;39.45;;;6.10;99.90;;;;;;5042679;28;20089;-82
2022/11/14 02:25:40;;;;;;;86.15;39.88;;;6.20;99.90;;;;;;5029524;28;20073;-83
2022/11/14 02:28:08;;;;;;;87.57;39.42;;;6.20;99.90;;;;;;4997022;28;20414;-83
2022/11/14 02:30:34;;;;;;;84.78;40.42;;;6.30;99.90;;;;;;5056989;28;20040;-82
2022/11/14 02:33:00;;;;;;;90.20;41.00;;;6.30;99.90;;;;;;5031524;28;20110;-83
2022/11/14 02:35:25;;;;;;;90.13;39.97;;;6.30;99.90;;;;;;5016240;28;20499;-82
2022/11/14 02:37:51;;;;;;;82.32;39.97;;;6.40;99.90;;;;;;5020830;28;20048;-82
2022/11/14 02:40:17;;;;;;;95.22;42.60;;;6.40;99.90;;;;;;5052931;28;20110;-84
2022/11/14 02:42:42;;;;;;;94.40;43.63;;;6.50;99.90;;;;;;5049565;28;20071;-82
2022/11/14 02:45:10;;;;;;;94.70;42.25;;;6.50;99.90;;;;;;5033128;28;20387;-82
2022/11/14 02:47:35;;;;;;;96.53;42.10;;;6.50;99.90;;;;;;5037491;28;20063;-82
2022/11/14 02:50:01;;;;;;;91.03;41.00;;;6.50;99.90;;;;;;5057049;28;20036;-82
2022/11/14 02:52:26;;;;;;;91.22;42.55;;;6.50;99.90;;;;;;5017887;28;20052;-83
2022/11/14 02:54:52;;;;;;;92.43;41.58;;;6.60;99.90;;;;;;5050003;28;20049;-82
2022/11/14 02:57:18;;;;;;;88.10;39.75;;;6.60;99.90;;;;;;5015386;28;20132;-82
2022/11/14 02:59:43;;;;;;;93.68;41.78;;;6.60;99.90;;;;;;5031595;28;20041;-82
2022/11/14 03:02:09;;;;;;;86.47;40.72;;;6.50;99.90;;;;;;4981303;28;1087403;-82
2022/11/14 03:04:35;;;;;;;84.90;40.50;;;6.60;99.90;;;;;;5051688;28;20106;-82
2022/11/14 03:07:00;;;;;;;90.35;41.58;;;6.60;99.90;;;;;;5047642;28;20052;-86
2022/11/14 03:09:26;;;;;;;86.82;40.78;;;6.60;99.90;;;;;;5044935;28;20048;-82
2022/11/14 03:11:51;;;;;;;85.03;42.22;;;6.60;99.90;;;;;;5031545;28;20688;-81
2022/11/14 03:14:17;;;;;;;87.88;40.00;;;6.60;99.90;;;;;;5021087;28;20128;-82
2022/11/14 03:16:43;;;;;;;87.45;40.08;;;6.70;99.90;;;;;;5050116;28;20053;-83
2022/11/14 03:19:08;;;;;;;88.25;39.53;;;6.60;99.90;;;;;;5045405;28;20048;-82
2022/11/14 03:21:34;;;;;;;85.60;40.65;;;6.60;99.90;;;;;;5018442;28;20375;-82
2022/11/14 03:24:00;;;;;;;85.55;40.10;;;6.60;99.90;;;;;;5033824;28;20052;-83
2022/11/14 03:26:26;;;;;;;90.55;40.35;;;6.70;99.90;;;;;;5015702;28;20044;-82
2022/11/14 03:28:53;;;;;;;86.70;40.83;;;6.60;99.90;;;;;;5032112;28;20072;-81
2022/11/14 03:31:19;;;;;;;83.22;39.42;;;6.60;99.90;;;;;;5032130;28;20041;-81
2022/11/14 03:33:45;;;;;;;82.28;39.95;;;6.70;99.90;;;;;;5064119;28;20043;-81
2022/11/14 03:36:10;;;;;;;85.03;38.85;;;6.60;99.90;;;;;;5049729;28;20049;-82
2022/11/14 03:38:36;;;;;;;86.10;41.17;;;6.60;99.90;;;;;;5029366;28;20486;-82
2022/11/14 03:41:02;;;;;;;83.07;39.40;;;6.60;99.90;;;;;;5027240;28;20659;-84
2022/11/14 03:43:33;;;;;;;80.15;38.30;;;6.60;99.90;;;;;;5015715;28;20481;-81
2022/11/14 03:46:00;;;;;;;79.07;37.53;;;6.60;99.90;;;;;;5041195;28;20057;-82
2022/11/14 03:48:27;;;;;;;83.45;39.25;;;6.60;99.90;;;;;;5047974;28;20510;-83
2022/11/14 03:50:52;;;;;;;83.13;39.22;;;6.70;99.90;;;;;;5012598;28;20163;-84
2022/11/14 03:53:18;;;;;;;83.00;38.97;;;6.70;99.90;;;;;;5030271;28;20167;-82
2022/11/14 03:55:44;;;;;;;80.43;39.85;;;6.60;99.90;;;;;;5047832;28;20048;-82
2022/11/14 03:58:09;;;;;;;82.70;38.60;;;6.60;99.90;;;;;;5014698;28;20119;-83
2022/11/14 04:00:35;;;;;;;75.40;37.92;;;6.50;99.90;;;;;;5032897;28;20045;-81
2022/11/14 04:03:00;;;;;;;81.70;39.72;;;6.70;99.90;;;;;;5033313;28;20060;-82
2022/11/14 04:05:26;;;;;;;84.18;39.58;;;6.70;99.90;;;;;;5016505;28;20094;-82
2022/11/14 04:07:52;;;;;;;78.07;37.63;;;6.60;99.90;;;;;;5047958;28;20769;-82
2022/11/14 04:10:18;;;;;;;74.65;36.40;;;6.60;99.90;;;;;;5032735;28;20498;-82
2022/11/14 04:12:51;;;;;;;77.38;36.90;;;6.60;99.90;;;;;;5016402;28;20049;-81
2022/11/14 04:15:18;;;;;;;72.30;36.60;;;6.60;99.90;;;;;;5049155;28;20037;-82
2022/11/14 04:17:44;;;;;;;75.53;38.38;;;6.50;99.90;;;;;;5047164;28;20055;-82
2022/11/14 04:20:11;;;;;;;72.20;37.28;;;6.60;99.90;;;;;;5042932;28;20036;-85
2022/11/14 04:22:37;;;;;;;75.70;37.50;;;6.60;99.90;;;;;;5047886;28;20052;-82
2022/11/14 04:25:03;;;;;;;76.47;36.47;;;6.60;99.90;;;;;;5032536;28;20074;-82
2022/11/14 04:27:29;;;;;;;79.53;38.47;;;6.60;99.90;;;;;;5028766;28;20064;-82
2022/11/14 04:29:55;;;;;;;85.60;40.28;;;6.60;99.90;;;;;;5045417;28;20741;-81
2022/11/14 04:32:20;;;;;;;81.97;38.90;;;6.50;99.90;;;;;;5031882;28;20045;-81
2022/11/14 04:34:46;;;;;;;77.53;38.35;;;6.50;99.90;;;;;;5033400;28;20708;-81
2022/11/14 04:37:12;;;;;;;78.72;38.80;;;6.50;99.90;;;;;;5031340;28;20682;-85
2022/11/14 04:39:37;;;;;;;80.63;38.13;;;6.50;99.90;;;;;;5041310;28;20136;-82
2022/11/14 04:42:03;;;;;;;83.28;38.70;;;6.60;99.90;;;;;;5015186;28;20049;-82
2022/11/14 04:44:29;;;;;;;79.70;39.20;;;6.50;99.90;;;;;;5048463;28;20037;-81
2022/11/14 04:46:55;;;;;;;79.50;38.00;;;6.50;99.90;;;;;;5016035;28;20048;-81
2022/11/14 04:49:20;;;;;;;81.97;38.40;;;6.60;99.90;;;;;;5031417;28;20049;-81
2022/11/14 04:51:46;;;;;;;80.32;39.63;;;6.50;99.90;;;;;;5025471;28;20047;-82
2022/11/14 04:54:11;;;;;;;76.90;37.72;;;6.60;99.90;;;;;;5023317;28;20045;-82
2022/11/14 04:56:37;;;;;;;81.30;38.38;;;6.60;99.90;;;;;;5042204;28;20492;-83
2022/11/14 04:59:03;;;;;;;79.38;38.47;;;6.60;99.90;;;;;;5028180;28;20685;-83
2022/11/14 05:01:28;;;;;;;81.72;39.17;;;6.60;99.90;;;;;;5043449;28;20653;-82
2022/11/14 05:03:55;;;;;;;86.25;40.58;;;6.70;99.90;;;;;;5015949;28;20060;-82
2022/11/14 05:06:20;;;;;;;77.97;39.53;;;6.60;99.90;;;;;;5035673;28;20504;-82
2022/11/14 05:08:47;;;;;;;78.57;38.75;;;6.60;99.90;;;;;;5049472;28;20045;-83
2022/11/14 05:11:18;;;;;;;75.13;39.03;;;6.60;99.90;;;;;;5049046;28;20111;-83
2022/11/14 05:13:44;;;;;;;83.70;40.05;;;6.60;99.90;;;;;;5056751;28;20208;-83
2022/11/14 05:16:10;;;;;;;87.53;40.58;;;6.60;99.90;;;;;;5036864;28;20544;-83
2022/11/14 05:18:37;;;;;;;74.68;35.67;;;6.60;99.90;;;;;;5022816;28;20041;-83
2022/11/14 05:21:03;;;;;;;78.03;38.78;;;6.60;99.90;;;;;;5044339;28;20084;-83
2022/11/14 05:23:28;;;;;;;81.63;39.75;;;6.60;99.90;;;;;;5015159;28;20057;-83
2022/11/14 05:26:02;;;;;;;81.95;40.25;;;6.60;99.90;;;;;;4993040;28;20044;-82
2022/11/14 05:28:28;;;;;;;79.82;40.05;;;6.60;99.90;;;;;;5017726;28;20085;-83
2022/11/14 05:31:12;;;;;;;82.53;40.58;;;6.50;99.90;;;;;;5005250;28;20081;-83
2022/11/14 05:33:38;;;;;;;80.25;38.92;;;6.60;99.90;;;;;;5019222;28;20492;-84
2022/11/14 05:36:13;;;;;;;82.00;38.88;;;6.60;99.90;;;;;;5043484;28;20045;-82
2022/11/14 05:38:39;;;;;;;80.68;40.40;;;6.60;99.90;;;;;;5029054;28;20126;-83
2022/11/14 05:41:10;;;;;;;77.10;38.05;;;6.60;99.90;;;;;;5031040;28;20482;-84
2022/11/14 05:43:36;;;;;;;81.20;40.22;;;6.60;99.90;;;;;;5017941;28;20052;-83
2022/11/14 05:46:04;;;;;;;83.82;39.45;;;6.60;99.90;;;;;;5042140;28;20482;-83
2022/11/14 05:48:31;;;;;;;82.88;39.28;;;6.60;99.90;;;;;;5039452;28;20041;-83
2022/11/14 05:50:58;;;;;;;82.20;39.42;;;6.60;99.90;;;;;;5031647;28;20127;-83
2022/11/14 05:53:24;;;;;;;85.85;39.13;;;6.50;99.90;;;;;;5014465;28;20053;-86
2022/11/14 05:55:50;;;;;;;82.47;40.05;;;6.70;99.90;;;;;;5037693;28;20049;-82
2022/11/14 05:58:15;;;;;;;80.97;38.35;;;6.60;99.90;;;;;;5010188;28;20037;-83
2022/11/14 06:00:42;;;;;;;81.43;38.70;;;6.50;99.90;;;;;;5030421;28;20457;-83
2022/11/14 06:03:07;;;;;;;82.70;40.75;;;6.50;99.90;;;;;;5032662;28;20087;-81
2022/11/14 06:05:34;;;;;;;83.68;37.92;;;6.50;99.90;;;;;;5031088;28;20650;-83
2022/11/14 06:08:00;;;;;;;89.50;43.67;;;6.50;99.90;;;;;;5030743;28;20044;-82
2022/11/14 06:10:26;;;;;;;92.00;41.88;;;6.50;99.90;;;;;;5025913;28;20068;-87
2022/11/14 06:12:51;;;;;;;82.63;39.50;;;6.50;99.90;;;;;;5032493;28;20037;-82
2022/11/14 06:15:17;;;;;;;88.95;41.72;;;6.50;99.90;;;;;;5047965;28;20066;-82
2022/11/14 06:17:43;;;;;;;93.07;40.28;;;6.50;99.90;;;;;;5036057;28;20053;-84
2022/11/14 06:20:09;;;;;;;79.65;39.00;;;6.40;99.90;;;;;;5029951;28;20128;-82
2022/11/14 06:22:35;;;;;;;86.80;38.60;;;6.40;99.90;;;;;;5027293;28;20056;-84
2022/11/14 06:25:01;;;;;;;86.32;41.70;;;6.30;99.90;;;;;;5011726;28;20053;-83
2022/11/14 06:27:27;;;;;;;88.40;38.75;;;6.30;99.90;;;;;;5030621;28;20636;-87
2022/11/14 06:29:53;;;;;;;82.00;37.90;;;6.20;99.90;;;;;;5031001;28;20060;-83
2022/11/14 06:32:18;;;;;;;92.03;40.70;;;6.20;99.90;;;;;;5031700;28;20478;-83
2022/11/14 06:34:44;;;;;;;90.75;39.47;;;6.20;99.90;;;;;;5032287;28;20041;-82
2022/11/14 06:37:09;;;;;;;89.00;39.80;;;6.20;99.90;;;;;;5020218;28;20041;-82
2022/11/14 06:39:35;;;;;;;93.07;40.72;;;6.20;99.90;;;;;;5031817;28;20132;-82
2022/11/14 06:42:01;;;;;;;92.95;40.88;;;6.20;99.90;;;;;;5016793;28;20081;-82
2022/11/14 06:44:26;;;;;;;87.35;38.45;;;6.10;99.90;;;;;;5019996;28;20053;-83
2022/11/14 06:46:52;;;;;;;95.25;40.05;;;6.10;99.90;;;;;;5039985;28;20099;-80
2022/11/14 06:49:18;;;;;;;89.90;39.67;;;6.10;99.90;;;;;;5019447;28;20048;-87
2022/11/14 06:51:44;;;;;;;94.57;39.35;;;6.10;99.90;;;;;;5024351;28;20068;-83
2022/11/14 06:54:12;;;;;;;91.63;38.22;;;6.10;99.90;;;;;;5002537;28;20040;-84
2022/11/14 06:56:38;;;;;;;97.55;41.33;;;6.10;99.90;;;;;;5028689;28;20064;-82
2022/11/14 06:59:04;;;;;;;92.68;39.83;;;6.10;99.90;;;;;;5027933;28;21394;-84
2022/11/14 07:01:30;;;;;;;94.85;42.03;;;6.10;99.90;;;;;;5031402;28;20096;-83
2022/11/14 07:03:57;;;;;;;93.70;40.78;;;6.10;99.90;;;;;;5046392;28;20118;-83
2022/11/14 07:06:27;;;;;;;88.57;38.92;;;6.10;99.90;;;;;;5059409;28;20044;-84
2022/11/14 07:08:54;;;;;;;97.57;40.28;;;6.10;99.90;;;;;;5030964;28;20041;-83
2022/11/14 07:11:22;;;;;;;98.15;41.65;;;6.10;99.90;;;;;;5060568;28;20183;-83
2022/11/14 07:13:56;;;;;;;96.78;39.75;;;6.10;99.90;;;;;;5047792;28;20494;-83
2022/11/14 07:16:30;;;;;;;95.85;39.70;;;6.00;99.90;;;;;;5031622;28;20045;-83
2022/11/14 07:18:56;;;;;;;92.07;41.10;;;6.00;99.90;;;;;;5048489;28;20051;-83
2022/11/14 07:21:23;;;;;;;101.50;40.20;;;6.00;99.90;;;;;;5048982;28;20085;-84
2022/11/14 07:23:48;;;;;;;82.55;38.63;;;6.00;99.90;;;;;;5051407;28;20183;-83
2022/11/14 07:26:14;;;;;;;92.72;39.70;;;6.00;99.90;;;;;;5018490;28;20127;-83
2022/11/14 07:28:42;;;;;;;93.35;39.22;;;6.00;99.90;;;;;;5050909;28;20048;-83
2022/11/14 07:31:11;;;;;;;88.82;38.72;;;6.00;99.90;;;;;;5051254;28;20053;-84
2022/11/14 07:33:37;;;;;;;95.32;39.83;;;6.00;99.90;;;;;;5034147;28;20052;-85
2022/11/14 07:36:03;;;;;;;88.75;39.33;;;6.00;99.90;;;;;;5025745;28;20059;-83
2022/11/14 07:38:30;;;;;;;86.50;36.97;;;5.90;99.90;;;;;;5040035;28;20045;-84
2022/11/14 07:41:08;;;;;;;82.72;37.55;;;5.90;99.90;;;;;;5046367;28;20049;-83
2022/11/14 07:43:33;;;;;;;84.47;38.10;;;5.90;99.90;;;;;;5050111;28;20107;-83
2022/11/14 07:46:04;;;;;;;92.07;39.85;;;5.90;99.90;;;;;;5044045;28;20060;-83
2022/11/14 07:48:30;;;;;;;93.95;39.05;;;5.80;99.90;;;;;;5053629;28;20544;-83
2022/11/14 07:51:05;;;;;;;89.95;39.67;;;5.80;99.90;;;;;;5050365;28;20131;-83
2022/11/14 07:53:31;;;;;;;94.65;39.95;;;5.90;99.90;;;;;;5033378;28;20056;-84
2022/11/14 07:56:02;;;;;;;95.85;41.42;;;5.90;99.90;;;;;;5050048;28;20748;-83
2022/11/14 07:58:27;;;;;;;96.93;40.05;;;6.00;99.90;;;;;;5069953;28;20127;-83
2022/11/14 08:00:53;;;;;;;97.93;42.35;;;6.00;99.90;;;;;;5034855;28;20451;-83
2022/11/14 08:03:19;;;;;;;95.15;40.35;;;6.10;99.90;;;;;;5051047;28;20052;-83
2022/11/14 08:05:44;;;;;;;97.25;39.33;;;6.10;99.90;;;;;;5045176;28;20048;-84
2022/11/14 08:08:10;;;;;;;87.18;39.17;;;6.20;99.90;;;;;;5067882;28;20140;-83
2022/11/14 08:10:36;;;;;;;90.30;40.08;;;6.20;99.90;;;;;;5058236;28;20077;-83
2022/11/14 08:13:04;;;;;;;88.47;37.88;;;6.20;99.90;;;;;;5048395;28;20106;-83
2022/11/14 08:15:30;;;;;;;85.10;37.70;;;6.20;99.90;;;;;;5061472;28;20563;-83
2022/11/14 08:18:00;;;;;;;84.82;38.38;;;6.30;99.90;;;;;;5044878;28;20459;-83
2022/11/14 08:20:27;;;;;;;88.20;38.60;;;6.20;99.90;;;;;;5058607;28;20056;-83
2022/11/14 08:22:53;;;;;;;86.15;38.72;;;6.10;99.90;;;;;;5035950;28;20510;-84
2022/11/14 08:25:19;;;;;;;87.15;37.88;;;6.10;99.90;;;;;;5035764;28;20094;-83
2022/11/14 08:27:45;;;;;;;84.28;36.42;;;6.10;99.90;;;;;;5046017;28;20049;-83
2022/11/14 08:30:11;;;;;;;86.18;38.58;;;6.10;99.90;;;;;;5015778;28;20063;-83
2022/11/14 08:32:37;;;;;;;82.47;38.75;;;6.20;99.90;;;;;;5053613;28;20052;-82
2022/11/14 08:35:03;;;;;;;84.20;38.72;;;6.20;99.90;;;;;;5032866;28;20607;-82
2022/11/14 08:37:28;;;;;;;83.72;35.47;;;6.20;99.90;;;;;;5039576;28;20102;-83
2022/11/14 08:39:54;;;;;;;87.38;37.45;;;6.30;99.90;;;;;;5054264;28;20053;-83
2022/11/14 08:42:20;;;;;;;78.47;37.55;;;6.30;99.90;;;;;;5019343;28;20131;-83
2022/11/14 08:44:45;;;;;;;81.88;36.58;;;6.30;99.90;;;;;;5052032;28;20041;-88
2022/11/14 08:47:11;;;;;;;79.53;37.08;;;6.30;99.90;;;;;;5062576;28;20067;-83
2022/11/14 08:49:36;;;;;;;77.68;35.50;;;6.40;99.90;;;;;;5048216;28;20509;-82
2022/11/14 08:52:02;;;;;;;76.50;37.00;;;6.30;99.90;;;;;;5039561;28;20045;-84
2022/11/14 08:54:28;;;;;;;75.95;35.72;;;6.50;99.90;;;;;;5040349;28;20057;-84
2022/11/14 08:56:54;;;;;;;81.30;38.78;;;6.60;99.90;;;;;;5059217;28;20049;-84
2022/11/14 08:59:19;;;;;;;74.68;35.40;;;6.70;99.90;;;;;;5010111;28;20144;-83
2022/11/14 09:01:45;;;;;;;77.25;37.13;;;6.70;99.90;;;;;;5023060;28;20041;-83
2022/11/14 09:04:11;;;;;;;78.95;36.78;;;6.80;99.90;;;;;;5029048;28;20079;-83
2022/11/14 09:06:36;;;;;;;75.07;37.35;;;6.90;99.90;;;;;;5032945;28;20586;-83
2022/11/14 09:09:02;;;;;;;75.88;35.72;;;6.90;99.90;;;;;;5032845;28;20048;-83
2022/11/14 09:11:28;;;;;;;70.43;35.38;;;6.90;99.90;;;;;;5003958;28;20523;-83
2022/11/14 09:13:53;;;;;;;71.32;34.75;;;6.80;99.90;;;;;;5032494;28;20478;-83
2022/11/14 09:16:19;;;;;;;73.90;36.65;;;6.70;99.90;;;;;;5032843;28;20398;-83
2022/11/14 09:18:45;;;;;;;68.65;34.45;;;6.80;99.90;;;;;;5032941;28;20485;-83
2022/11/14 09:21:11;;;;;;;72.97;35.97;;;6.80;99.90;;;;;;5038835;28;20284;-82
2022/11/14 09:23:37;;;;;;;68.80;35.13;;;7.00;99.90;;;;;;5039855;28;20124;-83
2022/11/14 09:26:04;;;;;;;66.72;34.20;;;7.00;99.90;;;;;;5036878;28;20071;-83
2022/11/14 09:28:29;;;;;;;66.90;33.47;;;7.10;99.90;;;;;;5055808;28;20115;-82
2022/11/14 09:31:01;;;;;;;65.28;33.88;;;7.10;99.90;;;;;;5015400;28;20048;-82
2022/11/14 09:33:27;;;;;;;64.07;32.90;;;7.00;99.90;;;;;;5047694;28;20514;-83
2022/11/14 09:36:00;;;;;;;68.15;33.85;;;7.00;99.90;;;;;;5067132;28;20119;-87
2022/11/14 09:38:26;;;;;;;67.18;35.05;;;7.00;99.90;;;;;;5036361;28;20064;-83
2022/11/14 09:41:07;;;;;;;64.55;33.92;;;7.00;99.90;;;;;;5023763;28;20044;-85
2022/11/14 09:43:48;;;;;;;63.80;33.00;;;7.10;99.90;;;;;;5042408;28;20128;-84
2022/11/14 09:46:23;;;;;;;62.70;33.22;;;7.30;99.90;;;;;;5041588;28;20726;-83
2022/11/14 09:48:51;;;;;;;58.67;32.35;;;7.30;99.90;;;;;;5029469;28;20048;-82
2022/11/14 09:51:23;;;;;;;60.50;32.63;;;7.40;99.90;;;;;;5029977;28;20105;-82
2022/11/14 09:54:02;;;;;;;63.45;34.40;;;7.50;99.90;;;;;;5023994;28;20056;-83
2022/11/14 09:56:28;;;;;;;61.75;32.35;;;7.60;99.90;;;;;;5042330;28;20061;-83
2022/11/14 09:58:55;;;;;;;62.45;32.75;;;7.50;99.90;;;;;;5020392;28;20394;-83
2022/11/14 10:01:43;;;;;;;60.80;33.80;;;7.50;99.90;;;;;;5032165;28;20116;-82
2022/11/14 10:04:27;;;;;;;61.45;33.22;;;7.60;99.90;;;;;;5035363;28;20089;-83
2022/11/14 10:07:01;;;;;;;59.95;32.25;;;7.60;99.90;;;;;;5034028;28;20053;-83
2022/11/14 10:09:52;;;;;;;59.78;32.60;;;7.60;99.90;;;;;;5028664;28;20041;-85
2022/11/14 10:12:25;;;;;;;62.38;33.88;;;7.60;99.90;;;;;;5034901;28;20122;-86
2022/11/14 10:15:12;;;;;;;56.55;31.35;;;7.50;99.90;;;;;;5031826;28;20045;-84
2022/11/14 10:17:55;;;;;;;56.65;32.65;;;7.50;99.90;;;;;;5031277;28;20046;-84
2022/11/14 10:20:54;;;;;;;57.15;31.52;;;7.40;99.90;;;;;;5041596;28;20394;-84
2022/11/14 10:24:17;;;;;;;58.45;32.33;;;7.30;99.90;;;;;;5011952;28;20768;-83
2022/11/14 10:27:00;;;;;;;52.63;29.60;;;7.20;99.90;;;;;;4980371;28;20460;-83
2022/11/14 10:29:38;;;;;;;50.20;28.75;;;7.20;99.90;;;;;;5033518;28;20045;-83
2022/11/14 10:32:13;;;;;;;53.08;30.65;;;7.30;99.90;;;;;;5029785;28;20047;-84
2022/11/14 10:34:55;;;;;;;53.63;30.77;;;7.30;99.90;;;;;;5038991;28;20049;-82
2022/11/14 10:37:28;;;;;;;54.88;32.17;;;7.50;99.90;;;;;;5040841;28;20029;-84
2022/11/14 10:40:00;;;;;;;50.58;30.15;;;7.60;99.90;;;;;;5030353;28;20073;-83
2022/11/14 10:42:39;;;;;;;53.67;30.23;;;7.80;99.90;;;;;;5039866;28;20037;-84
2022/11/14 10:45:17;;;;;;;58.75;31.70;;;8.00;99.90;;;;;;5029497;28;20052;-82
2022/11/14 10:47:48;;;;;;;50.42;29.45;;;8.10;99.90;;;;;;5029016;28;20398;-83
2022/11/14 10:50:19;;;;;;;52.72;30.38;;;8.10;99.90;;;;;;5044666;28;20050;-83
2022/11/14 10:52:46;;;;;;;52.08;30.40;;;8.10;99.90;;;;;;5018419;28;20446;-83
2022/11/14 10:55:16;;;;;;;50.60;29.98;;;8.20;99.90;;;;;;5028167;28;20085;-83
2022/11/14 10:57:44;;;;;;;68.07;31.30;;;8.20;99.90;;;;;;5027573;28;20083;-82
2022/11/14 11:00:18;;;;;;;51.83;30.58;;;8.20;99.90;;;;;;5044142;28;20127;-83
2022/11/14 11:02:53;;;;;;;50.10;29.90;;;8.30;99.90;;;;;;5046473;28;20045;-83
2022/11/14 11:05:28;;;;;;;49.35;28.35;;;8.50;99.90;;;;;;5051442;28;20041;-82
2022/11/14 11:13:34;;;;;;;52.05;27.95;;;8.70;99.90;;;;;;5061073;28;20510;-82
2022/11/14 11:16:04;;;;;;;52.22;29.75;;;8.60;99.90;;;;;;5034283;28;20041;-82
2022/11/14 11:18:35;;;;;;;46.55;28.50;;;8.40;99.90;;;;;;5031341;28;20038;-83
2022/11/14 11:21:10;;;;;;;46.92;26.85;;;8.30;99.90;;;;;;5049738;28;20048;-82
2022/11/14 11:23:47;;;;;;;46.15;28.23;;;8.20;99.90;;;;;;5038086;28;20049;-83
2022/11/14 11:26:23;;;;;;;47.22;27.27;;;8.10;99.90;;;;;;5039498;28;20045;-82
2022/11/14 11:29:15;;;;;;;50.50;28.55;;;8.00;99.90;;;;;;5034850;28;20045;-82
2022/11/14 11:31:55;;;;;;;47.65;28.88;;;8.00;99.90;;;;;;5031718;28;20061;-82
2022/11/14 11:34:31;;;;;;;52.72;29.60;;;7.90;99.90;;;;;;5031306;28;20037;-82
2022/11/14 11:37:10;;;;;;;50.17;28.77;;;7.90;99.90;;;;;;5015461;28;20042;-82
2022/11/14 11:39:40;;;;;;;53.30;29.52;;;7.90;99.90;;;;;;5031701;28;20041;-83
2022/11/14 11:42:13;;;;;;;46.40;27.98;;;7.90;99.90;;;;;;5027830;28;20052;-82
2022/11/14 11:44:44;;;;;;;47.38;27.80;;;7.80;99.90;;;;;;5032894;28;20517;-82
2022/11/14 11:47:16;;;;;;;53.10;29.88;;;7.80;99.90;;;;;;5042518;28;20037;-86
2022/11/14 11:49:51;;;;;;;49.10;29.02;;;7.80;99.90;;;;;;5032481;28;20045;-83
2022/11/14 11:52:57;;;;;;;49.40;29.00;;;7.70;99.90;;;;;;5015544;28;20372;-83
2022/11/14 11:55:33;;;;;;;46.97;28.50;;;7.70;99.90;;;;;;5031373;28;20045;-84
2022/11/14 11:58:18;;;;;;;50.50;28.25;;;7.80;99.90;;;;;;5050117;28;20041;-83
2022/11/14 12:00:44;;;;;;;52.03;29.67;;;7.80;99.90;;;;;;5046406;28;20044;-83
2022/11/14 12:03:14;;;;;;;47.35;28.63;;;7.90;99.90;;;;;;5032062;28;20444;-82
2022/11/14 12:06:08;;;;;;;52.38;30.20;;;7.90;99.90;;;;;;5034149;28;20056;-82
2022/11/14 12:08:53;;;;;;;56.17;31.33;;;7.90;99.90;;;;;;5033076;28;20045;-83
2022/11/14 12:11:22;;;;;;;50.13;29.38;;;7.90;99.90;;;;;;5049775;28;20068;-82
2022/11/14 12:14:07;;;;;;;53.00;30.98;;;7.90;99.90;;;;;;5050515;28;20465;-83
2022/11/14 12:16:55;;;;;;;50.40;30.00;;;7.90;99.90;;;;;;5030707;28;20060;-84
2022/11/14 12:19:24;;;;;;;47.15;28.67;;;8.00;99.90;;;;;;5055473;28;20049;-82
2022/11/14 12:21:55;;;;;;;48.47;29.60;;;7.90;99.90;;;;;;5038232;28;20128;-82
2022/11/14 12:24:39;;;;;;;48.78;28.77;;;7.90;99.90;;;;;;5029477;28;20395;-82
2022/11/14 12:27:23;;;;;;;56.00;29.30;;;7.90;99.90;;;;;;5030744;28;20129;-81
2022/11/14 12:29:57;;;;;;;53.60;29.48;;;7.90;99.90;;;;;;5014155;28;20053;-83
2022/11/14 12:32:31;;;;;;;44.00;27.55;;;7.90;99.90;;;;;;5030264;28;20156;-83
2022/11/14 12:34:58;;;;;;;47.90;27.60;;;8.00;99.90;;;;;;5043268;28;20049;-82
2022/11/14 12:37:34;;;;;;;49.90;26.92;;;8.00;99.90;;;;;;5037685;28;20040;-83
2022/11/14 12:40:03;;;;;;;42.75;26.50;;;8.00;99.90;;;;;;5033692;28;20514;-82
2022/11/14 12:42:30;;;;;;;49.45;27.70;;;8.00;99.90;;;;;;5023123;28;20072;-83
2022/11/14 12:44:56;;;;;;;49.30;28.17;;;8.00;99.90;;;;;;5033239;28;20057;-82
2022/11/14 12:47:24;;;;;;;48.08;26.88;;;8.00;99.90;;;;;;5029831;28;20103;-82
2022/11/14 12:49:53;;;;;;;44.28;26.70;;;8.10;99.90;;;;;;5047895;28;20053;-82